Time;durP1;ratioP1;P1;durP2;ratioP2;P2;SDS_P1;SDS_P2;PMS_P1;PMS_P2;Temp;Humidity;BMP_temperature;BMP_pressure;BME280_temperature;BME280_humidity;BME280_pressure;Samples;Min_cycle;Max_cycle;Signal;HPM_P1;HPM_P2
2024/01/09 00:01:21;;;;;;;8.70;3.90;;;;;;;-10.51;58.84;99782.32;79187;1303;3011584;-63
2024/01/09 00:03:49;;;;;;;5.30;1.90;;;;;;;-11.09;60.36;99784.65;77861;1303;3050419;-66
2024/01/09 00:06:16;;;;;;;7.30;2.50;;;;;;;-10.35;60.19;99786.98;79010;1306;3013644;-67
2024/01/09 00:08:43;;;;;;;6.80;2.90;;;;;;;-9.61;58.30;99789.33;78991;1303;3013079;-68
2024/01/09 00:11:14;;;;;;;6.40;3.20;;;;;;;-9.43;57.62;99786.89;77788;1305;3025798;-66
2024/01/09 00:13:41;;;;;;;9.10;3.30;;;;;;;-9.68;57.34;99795.92;79045;1303;3011659;-69
2024/01/09 00:16:10;;;;;;;9.60;3.80;;;;;;;-9.94;57.44;99795.25;78471;1302;3011523;-67
2024/01/09 00:18:37;;;;;;;9.10;3.40;;;;;;;-10.50;58.12;99803.86;78913;1306;3013526;-67
2024/01/09 00:21:03;;;;;;;5.40;3.10;;;;;;;-10.71;59.04;99797.69;79004;1305;3011684;-67
2024/01/09 00:23:32;;;;;;;3.20;1.40;;;;;;;-10.68;59.32;99793.02;77775;1303;3028520;-64
2024/01/09 00:25:58;;;;;;;5.40;2.70;;;;;;;-10.10;58.59;99791.58;78901;1304;3013256;-66
2024/01/09 00:28:24;;;;;;;5.10;2.70;;;;;;;-9.53;57.43;99789.21;78942;1303;3011825;-65
2024/01/09 00:30:52;;;;;;;5.40;3.30;;;;;;;-9.39;56.54;99790.23;77724;1306;3027993;-65
2024/01/09 00:33:19;;;;;;;9.30;4.00;;;;;;;-9.60;56.80;99784.44;79055;1305;3013587;-65
2024/01/09 00:35:45;;;;;;;5.50;3.30;;;;;;;-9.77;56.98;99789.77;78968;1303;3013451;-65
2024/01/09 00:38:13;;;;;;;7.00;3.60;;;;;;;-10.17;57.64;99800.38;77802;1303;3025160;-65
2024/01/09 00:40:40;;;;;;;8.80;3.70;;;;;;;-10.35;58.41;99808.36;79000;1302;3013949;-64
2024/01/09 00:43:06;;;;;;;2.70;1.30;;;;;;;-10.45;58.62;99814.84;78986;1306;3013570;-67
2024/01/09 00:45:34;;;;;;;6.40;2.90;;;;;;;-10.02;58.83;99815.69;77731;1306;3028907;-65
2024/01/09 00:48:00;;;;;;;7.40;3.80;;;;;;;-9.78;57.90;99816.03;79099;1306;3013290;-66
2024/01/09 00:50:27;;;;;;;11.20;4.30;;;;;;;-10.02;58.18;99822.84;78936;1303;3011616;-65
2024/01/09 00:52:55;;;;;;;9.10;3.80;;;;;;;-9.98;58.03;99828.17;77654;1319;3026235;-64
2024/01/09 00:55:22;;;;;;;6.40;3.60;;;;;;;-10.21;58.33;99839.24;78911;1306;3012791;-65
2024/01/09 00:57:49;;;;;;;10.00;4.00;;;;;;;-10.79;59.25;99840.09;79003;1306;3011789;-65
2024/01/09 01:00:17;;;;;;;7.70;2.60;;;;;;;-11.18;60.04;99837.82;77727;1306;3026207;-65
2024/01/09 01:02:43;;;;;;;3.80;2.00;;;;;;;-11.13;60.80;99836.48;78928;1305;3013553;-67
2024/01/09 01:05:16;;;;;;;6.60;3.50;;;;;;;-10.28;59.90;99843.45;78961;1305;3012133;-66
2024/01/09 01:07:45;;;;;;;6.60;3.40;;;;;;;-9.99;58.32;99849.02;77793;1303;3052932;-67
2024/01/09 01:10:13;;;;;;;6.50;3.30;;;;;;;-10.05;57.48;99849.86;78979;1305;3013084;-67
2024/01/09 01:12:40;;;;;;;8.30;3.70;;;;;;;-10.41;58.10;99849.34;79051;1303;3011815;-66
2024/01/09 01:15:08;;;;;;;5.90;3.50;;;;;;;-10.77;58.26;99846.89;77767;1305;3049912;-68
2024/01/09 01:17:36;;;;;;;6.70;2.60;;;;;;;-11.13;59.28;99854.22;79083;1306;3013623;-67
2024/01/09 01:20:03;;;;;;;2.30;1.40;;;;;;;-11.32;59.72;99862.58;79060;1306;3013918;-66
2024/01/09 01:22:31;;;;;;;4.80;2.60;;;;;;;-10.60;59.32;99862.65;77808;1303;3051422;-66
2024/01/09 01:24:58;;;;;;;8.40;4.10;;;;;;;-9.98;58.20;99873.98;79040;1306;3013108;-66
2024/01/09 01:27:24;;;;;;;6.40;3.20;;;;;;;-10.20;57.55;99872.16;78998;1302;3013245;-66
2024/01/09 01:29:52;;;;;;;12.30;3.70;;;;;;;-10.53;57.99;99871.52;77754;1306;3027837;-67
2024/01/09 01:32:18;;;;;;;11.80;4.30;;;;;;;-11.08;59.04;99875.36;78986;1306;3012734;-65
2024/01/09 01:34:45;;;;;;;7.30;3.90;;;;;;;-11.21;59.48;99875.80;78942;1303;3011805;-65
2024/01/09 01:37:13;;;;;;;7.50;2.70;;;;;;;-11.35;60.06;99890.02;77807;1303;3026275;-67
2024/01/09 01:39:39;;;;;;;11.80;5.20;;;;;;;-11.02;60.22;99889.42;78979;1303;3019308;-65
2024/01/09 01:42:06;;;;;;;13.90;4.80;;;;;;;-11.05;59.73;99894.08;78969;1302;3013683;-65
2024/01/09 01:44:35;;;;;;;19.90;7.80;;;;;;;-10.82;59.75;99894.14;77821;1304;3026398;-66
2024/01/09 01:47:01;;;;;;;14.70;6.60;;;;;;;-10.72;59.31;99891.42;78995;1306;3014708;-64
2024/01/09 01:49:28;;;;;;;17.40;8.60;;;;;;;-11.20;59.31;99899.50;78967;1305;3011877;-65
2024/01/09 01:51:56;;;;;;;16.10;6.90;;;;;;;-11.88;61.47;99903.91;77712;1308;3050673;-67
2024/01/09 01:54:22;;;;;;;10.00;4.00;;;;;;;-12.07;63.01;99914.19;78960;1302;3013067;-62
2024/01/09 01:56:49;;;;;;;18.00;7.10;;;;;;;-11.59;62.29;99910.85;79003;1303;3011517;-65
2024/01/09 01:59:17;;;;;;;16.50;6.10;;;;;;;-11.20;60.83;99913.88;77747;1306;3025798;-63
2024/01/09 02:01:43;;;;;;;11.90;4.90;;;;;;;-11.33;60.77;99922.09;78982;1309;3014755;-63
2024/01/09 02:04:10;;;;;;;10.60;4.90;;;;;;;-11.71;61.48;99931.70;78970;1306;3011518;-64
2024/01/09 02:06:38;;;;;;;13.70;5.80;;;;;;;-11.96;62.12;99927.29;77716;1306;3028226;-67
2024/01/09 02:09:05;;;;;;;10.00;4.10;;;;;;;-12.26;62.46;99925.52;78945;1303;3013124;-67
2024/01/09 02:11:32;;;;;;;7.60;2.90;;;;;;;-12.26;63.20;99931.23;78859;1304;3011840;-63
2024/01/09 02:14:00;;;;;;;13.90;3.90;;;;;;;-11.56;62.06;99932.94;77804;1306;3050180;-65
2024/01/09 02:16:26;;;;;;;8.50;4.10;;;;;;;-11.48;60.71;99938.10;78902;1306;3012619;-68
2024/01/09 02:18:53;;;;;;;7.70;3.50;;;;;;;-11.49;60.30;99932.36;78863;1304;3013223;-65
2024/01/09 02:21:21;;;;;;;8.90;4.20;;;;;;;-11.90;61.16;99938.98;77770;1303;3026593;-65
2024/01/09 02:23:48;;;;;;;8.10;4.40;;;;;;;-12.14;61.71;99944.70;79078;1306;3014973;-65
2024/01/09 02:26:17;;;;;;;3.70;1.90;;;;;;;-12.64;63.25;99943.45;78972;1303;3013596;-67
2024/01/09 02:28:47;;;;;;;8.60;3.50;;;;;;;-12.31;63.33;99931.71;77651;1304;3047772;-66
2024/01/09 02:31:13;;;;;;;10.40;4.80;;;;;;;-11.93;61.98;99929.73;79010;1306;3011887;-66
2024/01/09 02:33:40;;;;;;;11.30;4.60;;;;;;;-11.87;61.62;99928.94;79010;1303;3011467;-64
2024/01/09 02:36:08;;;;;;;8.00;4.20;;;;;;;-12.26;62.02;99928.20;77798;1306;3051724;-63
2024/01/09 02:38:34;;;;;;;11.40;4.40;;;;;;;-12.36;62.79;99930.52;78915;1302;3013173;-65
2024/01/09 02:41:01;;;;;;;6.30;2.90;;;;;;;-12.47;62.23;99942.94;79107;1306;3011574;-66
2024/01/09 02:43:29;;;;;;;6.60;2.90;;;;;;;-12.41;62.79;99952.09;77783;1306;3026125;-64
2024/01/09 02:45:55;;;;;;;13.00;4.40;;;;;;;-11.66;61.24;99942.20;78983;1306;3013108;-64
2024/01/09 02:48:23;;;;;;;12.70;5.10;;;;;;;-11.56;60.29;99949.83;78965;1306;3011957;-65
2024/01/09 02:50:50;;;;;;;12.90;5.60;;;;;;;-11.83;59.95;99950.70;77748;1302;3026103;-64
2024/01/09 02:53:17;;;;;;;9.30;4.70;;;;;;;-12.13;60.59;99956.39;79058;1303;3013450;-64
2024/01/09 02:55:43;;;;;;;10.50;5.00;;;;;;;-12.54;61.26;99962.23;78961;1306;3011919;-67
2024/01/09 02:58:11;;;;;;;9.50;2.50;;;;;;;-12.76;62.25;99963.38;77888;1306;3026426;-64
2024/01/09 03:00:38;;;;;;;8.50;4.10;;;;;;;-12.15;61.81;99962.39;79009;1306;3013510;-65
2024/01/09 03:03:05;;;;;;;8.40;4.10;;;;;;;-11.65;60.09;99969.29;78966;1306;3011822;-64
2024/01/09 03:05:33;;;;;;;10.90;5.50;;;;;;;-12.16;59.51;99968.77;77759;1306;3052368;-65
2024/01/09 03:07:59;;;;;;;10.10;5.20;;;;;;;-12.58;60.60;99978.59;79085;1302;3018535;-65
2024/01/09 03:10:26;;;;;;;5.30;3.00;;;;;;;-12.87;61.37;99989.58;78890;1305;3011620;-64
2024/01/09 03:12:54;;;;;;;9.10;2.20;;;;;;;-12.88;62.16;99982.09;77714;1306;3026248;-64
2024/01/09 03:15:20;;;;;;;8.80;3.50;;;;;;;-12.29;61.44;99982.09;78804;1306;3016044;-65
2024/01/09 03:17:47;;;;;;;9.00;4.10;;;;;;;-12.15;60.01;99989.75;78956;1306;3013155;-64
2024/01/09 03:20:15;;;;;;;8.40;3.60;;;;;;;-12.20;59.84;99988.73;77823;1306;3026105;-63
2024/01/09 03:22:42;;;;;;;9.20;4.20;;;;;;;-12.38;59.94;99989.87;79110;1303;3018921;-67
2024/01/09 03:25:08;;;;;;;6.90;2.80;;;;;;;-12.87;60.76;99999.88;78919;1309;3013595;-64
2024/01/09 03:27:36;;;;;;;1.70;1.30;;;;;;;-12.92;62.23;100010.95;77598;1305;3028392;-62
2024/01/09 03:30:03;;;;;;;13.40;3.70;;;;;;;-12.22;60.96;100004.35;79004;1303;3012977;-65
2024/01/09 03:32:30;;;;;;;14.40;4.60;;;;;;;-12.02;59.65;100007.65;79050;1306;3013037;-64
2024/01/09 03:34:59;;;;;;;9.00;3.70;;;;;;;-12.25;59.70;100005.58;77653;1306;3051834;-62
2024/01/09 03:37:25;;;;;;;13.60;5.10;;;;;;;-12.38;60.32;100014.84;78816;1303;3013277;-65
2024/01/09 03:39:52;;;;;;;10.40;3.20;;;;;;;-12.65;60.36;100029.11;78890;1302;3011953;-64
2024/01/09 03:42:20;;;;;;;3.10;1.90;;;;;;;-12.86;61.62;100025.06;77717;1306;3049306;-61
2024/01/09 03:44:48;;;;;;;6.90;3.40;;;;;;;-12.38;61.08;100033.94;78852;1306;3013759;-61
2024/01/09 03:47:15;;;;;;;12.70;4.40;;;;;;;-12.21;59.97;100038.83;78830;1306;3011607;-64
2024/01/09 03:49:43;;;;;;;10.10;3.60;;;;;;;-12.50;60.39;100052.52;77532;1302;3052591;-65
2024/01/09 03:52:11;;;;;;;13.30;4.20;;;;;;;-12.85;60.87;100053.24;78753;1306;3020429;-65
2024/01/09 03:54:37;;;;;;;15.10;5.10;;;;;;;-13.34;62.18;100055.17;78929;1302;3011995;-63
2024/01/09 03:57:06;;;;;;;7.20;3.20;;;;;;;-13.35;63.19;100055.50;77721;1303;3048634;-65
2024/01/09 03:59:33;;;;;;;6.20;3.60;;;;;;;-12.66;61.93;100054.22;78844;1306;3015829;-66
2024/01/09 04:01:59;;;;;;;16.10;4.60;;;;;;;-12.48;61.20;100062.73;78738;1306;3012960;-62
2024/01/09 04:04:27;;;;;;;10.80;3.70;;;;;;;-12.60;60.41;100068.33;77595;1306;3051239;-62
2024/01/09 04:06:54;;;;;;;12.80;6.10;;;;;;;-13.08;61.62;100079.10;78950;1303;3013727;-64
2024/01/09 04:09:20;;;;;;;5.20;2.80;;;;;;;-13.51;62.30;100077.90;78974;1303;3013503;-65
2024/01/09 04:11:48;;;;;;;6.20;2.20;;;;;;;-13.40;63.10;100081.70;77536;1306;3028197;-64
2024/01/09 04:14:15;;;;;;;6.90;3.70;;;;;;;-12.80;62.35;100081.29;78956;1306;3013255;-65
2024/01/09 04:16:46;;;;;;;7.40;4.10;;;;;;;-12.56;61.51;100085.52;79024;1305;3011812;-64
2024/01/09 04:19:14;;;;;;;4.50;3.30;;;;;;;-12.96;61.50;100089.21;77718;1303;3049675;-63
2024/01/09 04:21:41;;;;;;;8.80;4.00;;;;;;;-13.24;61.87;100083.95;78833;1305;3018565;-65
2024/01/09 04:24:07;;;;;;;6.30;3.10;;;;;;;-13.57;63.14;100090.77;78907;1306;3011760;-64
2024/01/09 04:26:35;;;;;;;8.20;3.50;;;;;;;-13.10;63.05;100097.55;77555;1303;3026688;-64
2024/01/09 04:29:02;;;;;;;5.50;3.40;;;;;;;-12.58;61.69;100099.63;78936;1306;3013257;-64
2024/01/09 04:31:29;;;;;;;9.30;4.20;;;;;;;-12.51;60.91;100098.92;78763;1306;3011647;-63
2024/01/09 04:33:56;;;;;;;5.30;3.20;;;;;;;-13.09;61.56;100110.44;77647;1306;3028241;-64
2024/01/09 04:36:23;;;;;;;12.30;4.10;;;;;;;-13.41;61.95;100111.39;78860;1304;3012965;-64
2024/01/09 04:38:49;;;;;;;5.00;2.30;;;;;;;-13.52;62.60;100115.06;78981;1305;3011961;-64
2024/01/09 04:41:17;;;;;;;4.30;2.40;;;;;;;-12.90;62.49;100113.59;77722;1302;3026626;-65
2024/01/09 04:43:46;;;;;;;8.70;3.50;;;;;;;-12.46;60.80;100110.59;78974;1306;3013553;-66
2024/01/09 04:46:13;;;;;;;8.00;3.00;;;;;;;-12.49;60.25;100115.20;79013;1304;3011943;-64
2024/01/09 04:48:41;;;;;;;5.60;3.00;;;;;;;-12.93;60.90;100122.41;77758;1304;3051437;-65
2024/01/09 04:51:07;;;;;;;6.50;3.30;;;;;;;-13.28;61.45;100113.47;79004;1306;3018406;-64
2024/01/09 04:53:34;;;;;;;4.20;2.40;;;;;;;-13.41;62.66;100121.16;78941;1306;3013197;-65
2024/01/09 04:56:03;;;;;;;6.90;3.00;;;;;;;-12.83;62.20;100126.04;77776;1303;3026202;-65
2024/01/09 04:58:30;;;;;;;6.20;3.80;;;;;;;-12.56;60.55;100124.02;78897;1306;3013588;-65
2024/01/09 05:00:56;;;;;;;9.20;3.80;;;;;;;-12.81;60.74;100130.55;78935;1306;3011805;-65
2024/01/09 05:03:24;;;;;;;15.10;4.30;;;;;;;-13.09;61.41;100122.04;77607;1306;3025924;-65
2024/01/09 05:05:51;;;;;;;3.50;2.40;;;;;;;-13.46;62.48;100123.79;78925;1304;3012916;-64
2024/01/09 05:08:18;;;;;;;4.00;2.20;;;;;;;-13.51;62.73;100135.03;79051;1306;3011314;-65
2024/01/09 05:10:46;;;;;;;6.70;3.30;;;;;;;-12.82;62.09;100137.77;77857;1306;3026299;-63
2024/01/09 05:13:12;;;;;;;4.50;2.70;;;;;;;-12.75;61.00;100139.55;79037;1308;3012875;-66
2024/01/09 05:15:39;;;;;;;9.10;3.90;;;;;;;-13.15;61.46;100145.20;78951;1306;3011763;-65
2024/01/09 05:18:07;;;;;;;9.20;4.00;;;;;;;-13.62;62.15;100160.77;77781;1305;3027370;-64
2024/01/09 05:20:33;;;;;;;7.10;2.40;;;;;;;-13.90;63.85;100161.49;78951;1303;3013307;-65
2024/01/09 05:23:00;;;;;;;8.70;3.90;;;;;;;-13.46;63.64;100154.10;79056;1302;3011732;-67
2024/01/09 05:25:28;;;;;;;13.40;5.40;;;;;;;-12.89;62.37;100162.08;77806;1306;3026335;-64
2024/01/09 05:27:55;;;;;;;11.60;4.50;;;;;;;-13.04;61.68;100159.06;79086;1306;3012977;-65
2024/01/09 05:30:22;;;;;;;16.70;5.80;;;;;;;-13.28;62.31;100167.40;79166;1306;3013612;-66
2024/01/09 05:32:49;;;;;;;8.90;3.80;;;;;;;-13.78;63.44;100176.56;77794;1303;3025989;-65
2024/01/09 05:35:16;;;;;;;9.20;4.50;;;;;;;-13.68;64.26;100166.11;78987;1303;3013614;-66
2024/01/09 05:37:42;;;;;;;13.50;5.20;;;;;;;-13.10;63.54;100172.77;79063;1304;3011886;-65
2024/01/09 05:40:11;;;;;;;13.20;5.00;;;;;;;-12.81;62.20;100182.84;77753;1306;3026771;-65
2024/01/09 05:42:37;;;;;;;8.70;3.90;;;;;;;-13.27;62.00;100200.52;79002;1314;3015388;-66
2024/01/09 05:45:05;;;;;;;8.00;4.40;;;;;;;-13.51;62.64;100194.54;78987;1303;3011909;-65
2024/01/09 05:47:35;;;;;;;3.60;2.00;;;;;;;-13.75;63.31;100193.20;77808;1309;3050211;-66
2024/01/09 05:50:02;;;;;;;10.10;3.40;;;;;;;-13.42;62.51;100196.10;79050;1303;3012954;-65
2024/01/09 05:52:28;;;;;;;6.40;3.70;;;;;;;-13.12;61.75;100195.63;78981;1303;3011855;-66
2024/01/09 05:54:56;;;;;;;17.10;4.10;;;;;;;-13.02;61.50;100203.67;77706;1308;3026137;-66
2024/01/09 05:57:23;;;;;;;6.00;3.40;;;;;;;-13.19;61.68;100215.05;79035;1308;3013150;-65
2024/01/09 05:59:50;;;;;;;5.80;3.20;;;;;;;-13.62;62.35;100213.37;78991;1308;3011450;-66
2024/01/09 06:02:18;;;;;;;5.00;2.60;;;;;;;-13.85;63.43;100218.66;77717;1306;3026777;-67
2024/01/09 06:04:45;;;;;;;9.80;3.60;;;;;;;-13.16;62.84;100214.48;78976;1303;3013627;-67
2024/01/09 06:07:11;;;;;;;7.20;3.70;;;;;;;-12.66;61.52;100214.70;79034;1302;3011662;-67
2024/01/09 06:09:39;;;;;;;7.70;3.90;;;;;;;-12.70;60.98;100218.42;77853;1306;3028765;-66
2024/01/09 06:12:06;;;;;;;11.00;5.00;;;;;;;-12.92;61.19;100213.38;79059;1306;3013350;-65
2024/01/09 06:14:33;;;;;;;7.90;3.80;;;;;;;-13.32;61.61;100224.89;78917;1303;3011833;-66
2024/01/09 06:17:00;;;;;;;3.80;2.40;;;;;;;-13.40;62.31;100230.91;77798;1305;3027908;-65
2024/01/09 06:19:27;;;;;;;14.40;4.10;;;;;;;-12.71;61.71;100233.04;79030;1302;3013148;-66
2024/01/09 06:21:53;;;;;;;6.30;3.80;;;;;;;-12.55;60.21;100225.68;78969;1307;3012931;-64
2024/01/09 06:24:21;;;;;;;8.10;3.80;;;;;;;-12.65;60.39;100223.39;77798;1306;3025303;-65
2024/01/09 06:26:48;;;;;;;8.50;4.00;;;;;;;-12.97;60.69;100236.59;79011;1317;3012841;-66
2024/01/09 06:29:14;;;;;;;4.20;2.30;;;;;;;-13.40;61.74;100239.68;79015;1302;3013382;-66
2024/01/09 06:31:42;;;;;;;9.30;2.80;;;;;;;-13.07;62.11;100233.60;77777;1306;3026084;-65
2024/01/09 06:34:09;;;;;;;8.10;3.10;;;;;;;-12.22;60.72;100228.47;79057;1301;3019278;-70
2024/01/09 06:36:35;;;;;;;7.60;3.80;;;;;;;-12.14;59.62;100238.40;79108;1306;3011649;-67
2024/01/09 06:39:03;;;;;;;7.30;3.80;;;;;;;-12.48;60.23;100238.82;78010;1306;3028501;-67
2024/01/09 06:41:30;;;;;;;9.90;4.80;;;;;;;-12.95;61.22;100242.10;79330;1306;3013272;-64
2024/01/09 06:43:57;;;;;;;4.30;2.70;;;;;;;-13.26;61.80;100250.79;79203;1306;3011691;-64
2024/01/09 06:46:24;;;;;;;5.40;2.80;;;;;;;-12.97;62.09;100246.04;77832;1301;3026152;-66
2024/01/09 06:48:51;;;;;;;7.00;4.10;;;;;;;-12.44;60.99;100249.29;79157;1304;3012972;-66
2024/01/09 06:51:19;;;;;;;6.10;3.40;;;;;;;-12.36;60.26;100243.04;79012;1302;3013438;-66
2024/01/09 06:53:47;;;;;;;6.30;4.10;;;;;;;-12.71;60.74;100249.44;78050;1306;3048971;-70
2024/01/09 06:56:13;;;;;;;10.80;4.00;;;;;;;-12.94;61.78;100256.84;79088;1306;3013180;-66
2024/01/09 06:58:40;;;;;;;7.90;3.40;;;;;;;-13.11;61.75;100260.91;79024;1307;3011535;-66
2024/01/09 07:01:08;;;;;;;7.10;3.30;;;;;;;-12.94;62.59;100263.71;77962;1306;3026654;-68
2024/01/09 07:03:35;;;;;;;7.10;3.50;;;;;;;-12.20;61.03;100271.79;78874;1308;3013685;-65
2024/01/09 07:06:02;;;;;;;8.50;3.90;;;;;;;-12.28;60.23;100272.80;79014;1302;3011822;-65
2024/01/09 07:08:30;;;;;;;12.90;4.20;;;;;;;-12.71;60.61;100292.29;77904;1306;3050666;-66
2024/01/09 07:10:57;;;;;;;13.10;6.10;;;;;;;-12.82;61.16;100289.10;79018;1309;3018496;-65
2024/01/09 07:13:23;;;;;;;4.20;2.00;;;;;;;-12.80;61.08;100292.73;78830;1306;3011886;-65
2024/01/09 07:15:51;;;;;;;11.00;3.50;;;;;;;-12.15;60.91;100283.45;77822;1304;3026489;-66
2024/01/09 07:18:17;;;;;;;10.00;3.70;;;;;;;-11.74;59.37;100282.82;79154;1302;3013880;-65
2024/01/09 07:20:44;;;;;;;7.80;3.80;;;;;;;-11.89;58.98;100285.27;78998;1302;3011942;-67
2024/01/09 07:23:12;;;;;;;6.00;3.30;;;;;;;-12.18;59.68;100284.36;77776;1317;3024995;-66
2024/01/09 07:25:38;;;;;;;8.10;3.90;;;;;;;-12.52;60.56;100288.95;79076;1306;3013674;-66
2024/01/09 07:28:05;;;;;;;6.60;3.10;;;;;;;-12.62;60.74;100287.14;78949;1303;3013315;-65
2024/01/09 07:30:33;;;;;;;8.50;3.10;;;;;;;-12.56;61.68;100294.98;77789;1306;3050793;-64
2024/01/09 07:33:00;;;;;;;5.20;3.90;;;;;;;-11.93;60.60;100298.10;78962;1304;3018417;-65
2024/01/09 07:35:26;;;;;;;7.70;4.30;;;;;;;-11.87;59.89;100301.06;78907;1306;3012696;-67
2024/01/09 07:37:54;;;;;;;10.20;4.70;;;;;;;-12.24;60.45;100303.37;77773;1307;3026353;-65
2024/01/09 07:40:21;;;;;;;9.40;4.60;;;;;;;-12.19;60.90;100299.89;78996;1306;3013965;-65
2024/01/09 07:42:49;;;;;;;12.50;2.90;;;;;;;-12.39;61.58;100310.30;79073;1303;3013186;-66
2024/01/09 07:45:16;;;;;;;9.80;3.90;;;;;;;-12.12;61.49;100317.72;77901;1302;3026011;-66
2024/01/09 07:47:43;;;;;;;9.60;4.30;;;;;;;-11.49;59.84;100312.25;79154;1302;3013449;-66
2024/01/09 07:50:09;;;;;;;9.50;4.30;;;;;;;-11.15;58.80;100311.95;78994;1303;3011634;-65
2024/01/09 07:52:37;;;;;;;9.60;5.10;;;;;;;-11.45;58.52;100313.65;77796;1303;3026568;-65
2024/01/09 07:55:04;;;;;;;13.40;5.10;;;;;;;-11.53;58.99;100311.08;78993;1317;3013350;-66
2024/01/09 07:57:33;;;;;;;11.80;5.10;;;;;;;-11.55;59.54;100317.77;79008;1308;3012913;-69
2024/01/09 08:00:01;;;;;;;6.00;2.90;;;;;;;-11.63;59.71;100327.59;78036;1301;3050769;-64
2024/01/09 08:02:39;;;;;;;12.30;4.50;;;;;;;-10.78;59.47;100320.48;77798;1304;3059330;-66
2024/01/09 08:05:06;;;;;;;11.30;5.40;;;;;;;-10.16;56.70;100322.14;79163;1308;3012865;-65
2024/01/09 08:07:32;;;;;;;16.40;6.50;;;;;;;-10.01;56.32;100322.52;78923;1304;3011753;-64
2024/01/09 08:10:00;;;;;;;10.40;5.80;;;;;;;-10.13;55.89;100331.75;77917;1302;3028631;-68
2024/01/09 08:12:27;;;;;;;11.60;5.50;;;;;;;-10.54;56.06;100339.03;78931;1306;3019328;-68
2024/01/09 08:14:53;;;;;;;14.10;5.90;;;;;;;-11.09;57.50;100347.73;79290;1302;3012980;-66
2024/01/09 08:17:21;;;;;;;13.20;4.20;;;;;;;-11.47;58.50;100351.27;78165;1302;3025765;-68
2024/01/09 08:19:48;;;;;;;10.30;4.00;;;;;;;-11.31;58.86;100345.46;79275;1302;3013811;-66
2024/01/09 08:22:14;;;;;;;11.30;5.50;;;;;;;-10.54;57.37;100341.09;79002;1304;3011637;-65
2024/01/09 08:26:26;;;;;;;17.10;6.00;;;;;;;-10.35;56.78;100338.40;80308;1300;3013017;-67
2024/01/09 08:28:52;;;;;;;15.40;5.90;;;;;;;-10.46;56.23;100337.84;79094;1303;3013469;-72
2024/01/09 08:31:19;;;;;;;13.80;6.40;;;;;;;-10.58;56.25;100341.10;79217;1300;3011912;-66
2024/01/09 08:33:47;;;;;;;9.80;5.10;;;;;;;-10.97;56.49;100347.54;78007;1303;3026109;-65
2024/01/09 08:36:14;;;;;;;8.50;3.30;;;;;;;-11.54;57.73;100354.84;79169;1299;3015022;-66
2024/01/09 08:38:41;;;;;;;10.50;4.60;;;;;;;-10.83;57.52;100342.50;79060;1300;3013377;-65
2024/01/09 08:41:10;;;;;;;9.10;4.00;;;;;;;-10.25;55.88;100340.32;78010;1303;3048761;-64
2024/01/09 08:43:37;;;;;;;10.70;4.30;;;;;;;-10.38;55.35;100341.84;79429;1298;3015030;-67
2024/01/09 08:46:03;;;;;;;9.00;5.40;;;;;;;-10.58;55.77;100332.64;79365;1302;3011786;-66
2024/01/09 08:48:32;;;;;;;11.50;5.00;;;;;;;-10.61;55.58;100334.70;78210;1297;3051931;-65
2024/01/09 08:50:58;;;;;;;15.70;4.90;;;;;;;-10.67;55.78;100337.06;79390;1300;3019074;-64
2024/01/09 08:53:28;;;;;;;9.20;3.80;;;;;;;-10.62;55.29;100342.15;79318;1297;3011663;-66
2024/01/09 08:55:56;;;;;;;6.10;3.30;;;;;;;-10.18;55.39;100336.45;78545;1303;3048482;-67
2024/01/09 08:58:22;;;;;;;15.80;4.70;;;;;;;-8.73;52.68;100329.29;79440;1303;3012660;-67
2024/01/09 09:00:49;;;;;;;14.90;5.70;;;;;;;-8.35;50.38;100329.77;79381;1301;3012288;-65
2024/01/09 09:03:17;;;;;;;16.40;6.50;;;;;;;-8.38;49.38;100325.95;78354;1300;3026268;-67
2024/01/09 09:05:44;;;;;;;16.50;5.40;;;;;;;-8.33;49.10;100331.52;79466;1302;3013408;-65
2024/01/09 09:08:11;;;;;;;14.10;6.30;;;;;;;-8.22;48.55;100323.52;79482;1298;3011759;-65
2024/01/09 09:10:39;;;;;;;13.70;6.10;;;;;;;-8.25;47.94;100321.05;78190;1298;3049844;-64
2024/01/09 09:13:07;;;;;;;12.00;5.30;;;;;;;-8.33;47.89;100319.48;79344;1303;3013821;-66
2024/01/09 09:15:33;;;;;;;15.30;6.50;;;;;;;-8.30;47.42;100321.41;79756;1296;3013281;-65
2024/01/09 09:18:01;;;;;;;16.20;7.50;;;;;;;-8.22;46.61;100317.91;78258;1298;3025552;-66
2024/01/09 09:20:27;;;;;;;16.20;6.30;;;;;;;-8.20;46.58;100316.77;79522;1298;3013360;-65
2024/01/09 09:22:55;;;;;;;19.10;7.40;;;;;;;-8.16;46.01;100320.29;79362;1297;3011636;-65
2024/01/09 09:25:23;;;;;;;18.60;7.10;;;;;;;-8.30;46.19;100325.17;78389;1297;3026242;-66
2024/01/09 09:27:49;;;;;;;19.00;7.10;;;;;;;-8.55;45.10;100328.67;79497;1298;3013617;-66
2024/01/09 09:30:16;;;;;;;7.00;3.40;;;;;;;-8.47;45.50;100320.27;79587;1297;3011551;-66
2024/01/09 09:32:44;;;;;;;11.20;4.60;;;;;;;-8.03;44.74;100322.69;78207;1297;3028194;-67
2024/01/09 09:35:10;;;;;;;19.90;5.70;;;;;;;-7.43;42.82;100324.64;79537;1300;3019089;-68
2024/01/09 09:37:37;;;;;;;15.30;6.70;;;;;;;-7.26;41.87;100316.07;79354;1300;3013334;-65
2024/01/09 09:40:05;;;;;;;10.40;4.90;;;;;;;-7.27;42.63;100316.02;78251;1300;3026384;-68
2024/01/09 09:42:32;;;;;;;15.40;5.20;;;;;;;-7.33;43.39;100311.96;79588;1298;3012944;-69
2024/01/09 09:45:00;;;;;;;17.40;6.50;;;;;;;-7.76;44.41;100307.79;79457;1298;3013073;-67
2024/01/09 09:47:28;;;;;;;16.80;6.00;;;;;;;-7.55;44.58;100295.05;78466;1297;3051530;-66
2024/01/09 09:49:54;;;;;;;14.50;5.80;;;;;;;-7.61;45.12;100292.03;79509;1301;3018875;-66
2024/01/09 09:52:21;;;;;;;16.90;5.80;;;;;;;-7.73;46.20;100299.70;79509;1297;3013867;-67
2024/01/09 09:54:49;;;;;;;10.90;3.50;;;;;;;-7.70;46.52;100298.61;78437;1298;3026739;-66
2024/01/09 09:57:16;;;;;;;7.90;4.50;;;;;;;-7.73;46.86;100304.98;79565;1298;3013690;-65
2024/01/09 09:59:43;;;;;;;11.80;4.30;;;;;;;-7.57;46.77;100310.16;79538;1298;3013356;-67
2024/01/09 10:02:14;;;;;;;6.30;2.60;;;;;;;-7.89;48.09;100304.39;78291;1299;3051768;-66
2024/01/09 10:04:46;;;;;;;7.30;2.50;;;;;;;-7.92;48.34;100307.00;79580;1298;3012698;-67
2024/01/09 10:07:16;;;;;;;6.60;2.90;;;;;;;-7.93;48.76;100305.63;78335;1297;3052919;-66
2024/01/09 10:09:46;;;;;;;6.30;3.00;;;;;;;-7.81;48.89;100302.04;79446;1298;3013028;-67
2024/01/09 10:12:14;;;;;;;6.30;2.80;;;;;;;-7.79;49.36;100303.77;78188;1298;3049149;-66
2024/01/09 10:15:00;;;;;;;5.80;2.90;;;;;;;-7.81;49.77;100299.15;79579;1297;3016048;-68
2024/01/09 10:17:29;;;;;;;10.60;3.60;;;;;;;-7.65;49.80;100297.55;78392;1300;3052571;-66
2024/01/09 10:19:55;;;;;;;7.40;3.30;;;;;;;-7.66;49.68;100285.61;79493;1300;3012942;-66
2024/01/09 10:22:22;;;;;;;6.90;3.20;;;;;;;-7.52;49.46;100284.59;79500;1300;3011398;-66
2024/01/09 10:24:50;;;;;;;10.00;3.10;;;;;;;-7.41;49.44;100287.26;78100;1297;3025873;-65
2024/01/09 10:27:19;;;;;;;8.30;3.30;;;;;;;-7.42;48.92;100278.72;79578;1297;3018513;-65
2024/01/09 10:29:46;;;;;;;7.30;2.80;;;;;;;-7.38;48.69;100272.86;79534;1297;3011574;-65
2024/01/09 10:32:14;;;;;;;7.80;3.20;;;;;;;-7.35;49.18;100279.76;77967;1304;3050787;-68
2024/01/09 10:34:40;;;;;;;12.60;4.00;;;;;;;-6.99;48.84;100267.85;79691;1300;3013172;-65
2024/01/09 10:37:07;;;;;;;9.00;3.80;;;;;;;-7.09;48.92;100266.59;79440;1298;3011585;-66
2024/01/09 10:39:35;;;;;;;7.60;3.40;;;;;;;-7.11;48.72;100264.50;78083;1297;3026606;-67
2024/01/09 10:42:09;;;;;;;13.00;4.30;;;;;;;-7.35;49.43;100265.44;79455;1297;3013076;-67
2024/01/09 10:44:39;;;;;;;9.20;3.50;;;;;;;-7.30;49.29;100257.06;78520;1297;3049211;-70
2024/01/09 10:47:09;;;;;;;9.60;4.10;;;;;;;-7.40;49.87;100261.59;79759;1302;3013148;-69
2024/01/09 10:49:40;;;;;;;6.70;3.20;;;;;;;-7.41;49.64;100266.66;78260;1303;3051588;-65
2024/01/09 10:52:17;;;;;;;9.60;3.50;;;;;;;-7.57;50.51;100263.70;79427;1298;3011996;-66
2024/01/09 10:54:44;;;;;;;9.40;3.50;;;;;;;-7.76;51.33;100262.19;78139;1298;3049462;-65
2024/01/09 10:57:15;;;;;;;7.30;3.80;;;;;;;-7.86;52.35;100262.43;79451;1301;3018716;-65
2024/01/09 10:59:44;;;;;;;10.20;3.80;;;;;;;-7.92;52.21;100268.56;78801;1297;3012730;-67
2024/01/09 11:02:15;;;;;;;12.40;4.90;;;;;;;-8.12;53.47;100269.40;79575;1303;3018912;-66
2024/01/09 11:04:43;;;;;;;7.50;3.10;;;;;;;-8.12;54.29;100281.64;78189;1303;3051200;-67